»·PEaware :: N1DB KOAK-KAUN

N1DB :: KOAK-KAUN

FLIGHT INFORMATION

Flight Status: Arrived
Operator: Privately registered:
United States
More flights under this callsign
Pilot: Dominic B. (18944)
Aircraft: CESSNA T210 TURBO CENTURION
(T210)
More flights by this aircraft type
Origin: KOAK Metro Oakland Intl
United States
Destination: KAUN Auburn Mun
United States
More flights between these airports :: More routes between these airports
Route: OAK V6 SAC
File this flight plan on PilotEdge
Remarks:
Altitude:
(Current/Filed)
5,000ft
Speed:
(Current/Filed)
168kts
Departed: 22-Feb-21 09:31 PM
Arrived: 22-Feb-21 10:09 PM
Distance/Time
Traveled:
91nm/0:38
Distance/Time
To Go:
Arrived

Flight Plot

Page will automatically refresh every two minutes.

Flight plan parsing failed; only flown route is shown


Map Options




Map Legend


Flown Route
Filed Route
Departure Airport
Arrival Airport
Navaid (VOR, NDB)
Fix

Horizontal Profiles

Position Reports

Time Latitude Longitude Heading Altitude Ground
Speed
22-Feb-21 21:13 37.729543 -122.212479 307 10ft 0kts
22-Feb-21 21:14 37.729543 -122.212479 307 10ft 0kts
22-Feb-21 21:15 37.729543 -122.212479 307 10ft 0kts
22-Feb-21 21:16 37.729543 -122.212479 307 10ft 0kts
22-Feb-21 21:17 37.729543 -122.212479 307 10ft 0kts
22-Feb-21 21:18 37.729543 -122.212479 307 10ft 0kts
22-Feb-21 21:19 37.729543 -122.212479 307 10ft 0kts
22-Feb-21 21:20 37.729543 -122.212479 307 10ft 0kts
22-Feb-21 21:21 37.729543 -122.212479 307 10ft 0kts
22-Feb-21 21:22 37.729543 -122.212479 307 10ft 0kts
22-Feb-21 21:23 37.729543 -122.212479 307 10ft 0kts
22-Feb-21 21:24 37.729530 -122.212694 234 10ft 0kts
22-Feb-21 21:25 37.729180 -122.213069 216 10ft 2kts
22-Feb-21 21:26 37.727850 -122.211251 114 10ft 10kts
22-Feb-21 21:27 37.726800 -122.207964 111 10ft 9kts
22-Feb-21 21:28 37.725777 -122.205034 113 10ft 8kts
22-Feb-21 21:29 37.725279 -122.204639 183 10ft 2kts
22-Feb-21 21:30 37.727289 -122.212709 293 72ft 89kts
22-Feb-21 21:31 37.744632 -122.238673 325 1259ft 104kts
22-Feb-21 21:32 37.768633 -122.258412 327 2415ft 110kts
22-Feb-21 21:33 37.797145 -122.260782 36 3439ft 126kts
22-Feb-21 21:34 37.824445 -122.230402 39 4469ft 129kts
22-Feb-21 21:35 37.853375 -122.199010 39 5008ft 157kts
22-Feb-21 21:36 37.888031 -122.161266 41 5002ft 167kts
22-Feb-21 21:37 37.923500 -122.122685 41 5005ft 167kts
22-Feb-21 21:38 37.959062 -122.084031 41 5000ft 168kts
22-Feb-21 21:39 37.994375 -122.045571 41 5000ft 168kts
22-Feb-21 21:40 38.030041 -122.006673 41 4998ft 168kts
22-Feb-21 21:41 38.066374 -121.967034 37 5000ft 177kts
22-Feb-21 21:43 38.104097 -121.925744 37 4998ft 179kts
22-Feb-21 21:44 38.141927 -121.884288 37 4999ft 179kts
22-Feb-21 21:45 38.179746 -121.842825 37 4998ft 179kts
22-Feb-21 21:46 38.217597 -121.801301 37 4995ft 179kts
22-Feb-21 21:47 38.255635 -121.759506 37 4998ft 179kts
22-Feb-21 21:48 38.293453 -121.717782 37 4997ft 179kts
22-Feb-21 21:49 38.331346 -121.675992 37 5001ft 179kts
22-Feb-21 21:50 38.369095 -121.634404 37 5000ft 179kts
22-Feb-21 21:51 38.407145 -121.592337 39 5002ft 178kts
22-Feb-21 21:52 38.443630 -121.551836 37 4999ft 172kts
22-Feb-21 21:53 38.482530 -121.516417 34 4998ft 171kts
22-Feb-21 21:54 38.521380 -121.480931 34 5004ft 171kts
22-Feb-21 21:55 38.560289 -121.445290 34 5001ft 171kts
22-Feb-21 21:56 38.599478 -121.409403 34 4997ft 172kts
22-Feb-21 21:57 38.638622 -121.373533 34 4997ft 172kts
22-Feb-21 21:58 38.677755 -121.337485 35 4998ft 171kts
22-Feb-21 21:59 38.716534 -121.301941 36 5002ft 171kts
22-Feb-21 22:00 38.755478 -121.266120 36 4998ft 172kts
22-Feb-21 22:01 38.794299 -121.230275 36 4996ft 172kts
22-Feb-21 22:02 38.833447 -121.194123 38 5021ft 173kts
22-Feb-21 22:03 38.873372 -121.158466 35 4848ft 174kts
22-Feb-21 22:04 38.915769 -121.130783 30 4010ft 154kts
22-Feb-21 22:05 38.942125 -121.090286 55 2988ft 151kts
22-Feb-21 22:06 38.968385 -121.100323 276 2384ft 144kts
22-Feb-21 22:06 38.959033 -121.134677 177 1995ft 110kts
22-Feb-21 22:08 38.952865 -121.104462 87 1701ft 66kts
22-Feb-21 22:09 38.954721 -121.083099 78 1514ft 23kts
22-Feb-21 22:09 38.953380 -121.081961 33 1514ft 0kts
22-Feb-21 22:11 38.953380 -121.081961 33 1514ft 0kts
22-Feb-21 22:11 38.953380 -121.081961 33 1514ft 0kts
22-Feb-21 22:12 38.953380 -121.081961 33 1514ft 0kts
22-Feb-21 22:13 38.953380 -121.081961 33 1514ft 0kts
22-Feb-21 22:15 38.953380 -121.081961 33 1514ft 0kts
22-Feb-21 22:16 38.953380 -121.081961 33 1514ft 0kts

Navigation Log

Ident Type
Flight plan parsing failed, navigation log unavailable